Flight Track Log - Related Links

Times and Time Zones

All times are in EDT time to prevent confusion due to time zone crossing. See the EGF4218 flight status page for this flight to view local times or setup timezone preferences in your user account.

Time Position Orientation Groundspeed Altitude Reporting Facility
EDT Latitude Longitude Course Direction KTS MPH feet Rate Location/Type
Tue 10:44:28 AM 41.9667 -87.9500 203° Southwest 170 196 1,400  Level Chicago TRACON
Tue 10:45:34 AM 41.9333 -87.9833 217° Southwest 185 213 3,700 1,796 Climbing Chicago TRACON
Tue 10:46:00 AM 41.7762 -88.2291 203° Southwest  Level Estimated
Tue 10:47:00 AM 41.7075 -88.3361 197° South  Level Estimated
Tue 10:47:15 AM 41.8175 -87.9889 182° South 242 278 6,400  Level Chicago Center
Tue 10:48:00 AM 41.6136 -88.2722 153° Southeast  Level FlightAware Approximate
Tue 10:48:17 AM 41.7536 -88.0203 200° South 246 283 8,600  Level Chicago Center
Tue 10:49:00 AM 41.5459 -88.3801 203° Southwest  Level Estimated
Tue 10:49:19 AM 41.6856 -88.0544 201° Southwest 261 300 10,500  Level Chicago Center
Tue 10:50:21 AM 41.6125 -88.0869 198° South 279 321 12,100 1,512 Climbing Chicago Center
Tue 10:51:22 AM 41.5353 -88.1219 199° South 295 339 13,600 1,415 Climbing Chicago Center
Tue 10:52:24 AM 41.4392 -88.1656 199° South 312 359 15,000 1,161 Climbing Chicago Center
Tue 10:53:26 AM 41.3536 -88.2039 199° South 334 384 16,000 1,016 Climbing Chicago Center
Tue 10:54:28 AM 41.2628 -88.2447 199° South 347 399 17,100 1,065 Climbing Chicago Center
Tue 10:55:30 AM 41.1692 -88.2875 199° South 355 409 18,200 1,113 Climbing Chicago Center
Tue 10:56:32 AM 41.0531 -88.3394 199° South 367 422 19,400 1,122 Climbing Chicago Center
Tue 10:57:33 AM 40.9533 -88.3844 199° South 377 434 20,500 1,024 Climbing Chicago Center
Tue 10:58:35 AM 40.8517 -88.4311 199° South 386 444 21,500 968 Climbing Chicago Center
Tue 10:59:37 AM 40.7467 -88.4761 198° South 396 456 22,500 1,113 Climbing Chicago Center
Tue 11:00:39 AM 40.6408 -88.5214 198° South 401 461 23,800 1,220 Climbing Chicago Center
Tue 11:01:40 AM 40.5508 -88.5972 213° Southwest 393 452 25,000 1,268 Climbing Chicago Center
Tue 11:02:42 AM 40.4689 -88.7333 232° Southwest 392 451 26,400 1,258 Climbing Chicago Center
Tue 11:03:44 AM 40.4053 -88.8367 231° Southwest 392 451 27,600 1,161 Climbing Chicago Center
Tue 11:04:46 AM 40.3361 -88.9478 231° Southwest 392 451 28,800 1,122 Climbing Chicago Center
Tue 11:05:47 AM 40.2672 -89.0556 230° Southwest 388 447 29,900 585 Climbing Chicago Center
Tue 11:06:49 AM 40.1956 -89.1681 230° Southwest 400 460 30,000 212 Climbing Chicago Center
Tue 11:07:40 AM 40.1172 -89.2875 229° Southwest 419 482 30,300 690 Climbing Kansas City Center
Tue 11:08:42 AM 40.0397 -89.4097 230° Southwest 431 496 31,300 823 Climbing Kansas City Center
Tue 11:09:44 AM 39.9617 -89.5294 230° Southwest 431 496 32,000 339 Climbing Kansas City Center
Tue 11:10:46 AM 39.8819 -89.6517 230° Southwest 437 503 32,000  Level Kansas City Center
Tue 11:11:48 AM 39.8000 -89.7786 230° Southwest 450 518 32,000  Level Kansas City Center
Tue 11:12:50 AM 39.7103 -89.9192 230° Southwest 450 518 32,000  Level Kansas City Center
Tue 11:13:52 AM 39.6308 -90.0417 230° Southwest 448 516 32,000  Level Kansas City Center
Tue 11:14:54 AM 39.5492 -90.1647 229° Southwest 449 517 32,000  Level Kansas City Center
Tue 11:15:56 AM 39.4683 -90.2869 229° Southwest 450 518 32,000  Level Kansas City Center
Tue 11:16:58 AM 39.3869 -90.4108 230° Southwest 452 520 32,000  Level Kansas City Center
Tue 11:18:00 AM 39.2889 -90.5586 229° Southwest 454 522 32,000  Level Kansas City Center
Tue 11:19:02 AM 39.2075 -90.6817 230° Southwest 454 522 32,000  Level Kansas City Center
Tue 11:20:04 AM 39.1264 -90.8019 229° Southwest 451 519 32,000 339 Level Kansas City Center
Tue 11:21:06 AM 39.0447 -90.9244 229° Southwest 454 522 32,700 774 Climbing Kansas City Center
Tue 11:22:08 AM 38.9656 -91.0422 229° Southwest 444 511 33,600 629 Climbing Kansas City Center
Tue 11:23:10 AM 38.8719 -91.1803 229° Southwest 433 498 34,000 194 Climbing Kansas City Center
Tue 11:24:12 AM 38.8025 -91.3125 236° Southwest 444 511 34,000  Level Kansas City Center
Tue 11:25:14 AM 38.7353 -91.4486 238° Southwest 453 521 34,000  Level Kansas City Center
Tue 11:26:16 AM 38.6681 -91.5794 237° Southwest 456 525 34,000  Level Kansas City Center
Tue 11:27:18 AM 38.5833 -91.7397 236° Southwest 454 522 34,000  Level Kansas City Center
Tue 11:28:20 AM 38.5136 -91.8728 236° Southwest 451 519 34,000  Level Kansas City Center
Tue 11:29:22 AM 38.4442 -92.0056 236° Southwest 449 517 34,000  Level Kansas City Center
Tue 11:30:24 AM 38.3747 -92.1358 236° Southwest 445 512 34,000  Level Kansas City Center
Tue 11:31:26 AM 38.3044 -92.2667 236° Southwest 447 514 34,000  Level Kansas City Center
Tue 11:32:28 AM 38.2350 -92.3969 236° Southwest 447 514 34,000  Level Kansas City Center
Tue 11:33:30 AM 38.1636 -92.5322 236° Southwest 449 517 34,000  Level Kansas City Center
Tue 11:34:32 AM 38.0781 -92.6925 236° Southwest 456 525 34,000  Level Kansas City Center
Tue 11:35:34 AM 38.0103 -92.8178 236° Southwest 457 526 34,000  Level Kansas City Center
Tue 11:36:37 AM 37.9375 -92.9500 235° Southwest 458 527 34,000  Level Kansas City Center
Tue 11:37:39 AM 37.8661 -93.0808 235° Southwest 454 522 34,000  Level Kansas City Center
Tue 11:38:41 AM 37.7833 -93.2364 236° Southwest 447 514 34,000  Level Kansas City Center
Tue 11:39:43 AM 37.7117 -93.3667 235° Southwest 449 517 34,000  Level Kansas City Center
Tue 11:40:45 AM 37.6392 -93.4986 235° Southwest 455 524 34,000  Level Kansas City Center
Tue 11:41:47 AM 37.5667 -93.6275 235° Southwest 451 519 34,000  Level Kansas City Center
Tue 11:42:49 AM 37.4956 -93.7561 235° Southwest 448 516 34,000  Level Kansas City Center
Tue 11:43:51 AM 37.4239 -93.8836 235° Southwest 446 513 34,000  Level Kansas City Center
Tue 11:44:53 AM 37.3389 -94.0381 235° Southwest 446 513 34,000 -242 Level Kansas City Center
Tue 11:45:55 AM 37.2672 -94.1661 235° Southwest 446 513 33,500 -1,016 Descending Kansas City Center
Tue 11:46:57 AM 37.1958 -94.2931 235° Southwest 446 513 31,900 -1,500 Descending Kansas City Center
Tue 11:47:59 AM 37.1219 -94.4172 233° Southwest 444 511 30,400 -1,500 Descending Kansas City Center
Tue 11:49:01 AM 37.0489 -94.5464 235° Southwest 449 517 28,800 -1,645 Descending Kansas City Center
Tue 11:50:03 AM 36.9764 -94.6739 235° Southwest 449 517 27,000 -1,839 Descending Kansas City Center
Tue 11:51:05 AM 36.9069 -94.7997 235° Southwest 445 512 25,000 -2,177 Descending Kansas City Center
Tue 11:52:07 AM 36.8206 -94.9525 235° Southwest 447 514 22,500 -2,208 Descending Kansas City Center
Tue 11:52:51 AM 36.7706 -95.0392 234° Southwest 439 505 21,100 -1,935 Descending Kansas City Center
Tue 11:53:09 AM 36.7522 -95.0719 235° Southwest 433 498 20,500 -2,125 Descending Kansas City Center
Tue 11:53:39 AM 36.7181 -95.1300 234° Southwest 413 475 19,400 -2,032 Descending Kansas City Center
Tue 11:54:11 AM 36.6856 -95.1853 234° Southwest 414 476 18,400 -2,291 Descending Kansas City Center
Tue 11:54:34 AM 36.6600 -95.2319 236° Southwest 392 451 17,300 -2,516 Descending Kansas City Center
Tue 11:55:13 AM 36.6175 -95.2844 225° Southwest 385 443 15,800 -2,500 Descending Kansas City Center
Tue 11:55:34 AM 36.5864 -95.3231 225° Southwest 366 421 14,800 -2,226 Descending Kansas City Center
Tue 11:56:15 AM 36.5453 -95.3703 223° Southwest 366 421 13,500 -2,164 Descending Kansas City Center
Tue 11:56:35 AM 36.5231 -95.4122 237° Southwest 349 402 12,600 -2,419 Descending Kansas City Center
Tue 11:57:17 AM 36.4903 -95.4867 241° Southwest 335 386 11,000 -2,000 Descending Kansas City Center
Tue 11:57:35 AM 36.4758 -95.5175 240° Southwest 324 373 10,600 -1,161 Descending Kansas City Center
Tue 11:58:19 AM 36.4511 -95.5789 243° Southwest 314 361 9,800 -1,528 Descending Kansas City Center
Tue 11:59:21 AM 36.4111 -95.6644 240° Southwest 293 337 7,900 -1,645 Descending Kansas City Center
Tue 12:00:23 PM 36.3747 -95.7458 241° Southwest 276 318 6,400 -1,452 Descending Kansas City Center

Login

Don't have an account? Register now (free) for customized features, flight alerts, and more!